createdAt,value
2022-11-22T00:02:49.634Z,97217.63
2022-11-22T00:06:51.345Z,97226.19
2022-11-22T00:10:52.621Z,97216.75
2022-11-22T00:14:57.005Z,97221.88
2022-11-22T00:18:58.476Z,97225.31
2022-11-22T00:22:59.908Z,97225.28
2022-11-22T00:27:01.207Z,97239.13
2022-11-22T00:31:02.516Z,97235.63
2022-11-22T00:35:04.056Z,97240.88
2022-11-22T00:39:05.579Z,97244.28
2022-11-22T00:43:06.816Z,97250.28
2022-11-22T00:47:08.136Z,97257.16
2022-11-22T00:51:09.424Z,97262.31
2022-11-22T00:55:10.922Z,97257.19
2022-11-22T00:59:12.185Z,97267.56
2022-11-22T01:03:13.802Z,97265.88
2022-11-22T01:07:15.309Z,97283.06
2022-11-22T01:11:17.810Z,97286.53
2022-11-22T01:15:19.157Z,97297.88
2022-11-22T01:19:20.718Z,97303.91
2022-11-22T01:23:22.131Z,97302.16
2022-11-22T01:27:24.252Z,97298.78
2022-11-22T01:31:25.545Z,97320.28
2022-11-22T01:35:26.880Z,97314.38
2022-11-22T01:39:28.654Z,97310.97
2022-11-22T01:43:30.563Z,97312.78
2022-11-22T01:47:31.876Z,97311.19
2022-11-22T01:51:38.427Z,97304.31
2022-11-22T01:55:40.293Z,97313.97
2022-11-22T01:59:44.554Z,97324.41
2022-11-22T02:03:48.768Z,97327.91
2022-11-22T02:07:56.095Z,97331.47
2022-11-22T02:11:59.770Z,97329.13
2022-11-22T02:16:01.658Z,97332.81
2022-11-22T02:20:03.058Z,97338.16
2022-11-22T02:24:18.974Z,97342.66
2022-11-22T02:28:20.316Z,97345.47
2022-11-22T02:32:21.874Z,97348.34
2022-11-22T02:36:23.275Z,97349.31
2022-11-22T02:40:26.486Z,97356.34
2022-11-22T02:44:27.827Z,97359.06
2022-11-22T02:48:29.161Z,97370.38
2022-11-22T02:52:30.470Z,97379.94
2022-11-22T02:56:31.799Z,97393.84
2022-11-22T03:00:33.986Z,97393.06
2022-11-22T03:04:35.360Z,97383.56
2022-11-22T03:08:36.709Z,97387.00
2022-11-22T03:12:38.205Z,97377.66
2022-11-22T03:16:39.490Z,97372.56
2022-11-22T03:20:40.837Z,97376.94
2022-11-22T03:24:42.155Z,97385.63
2022-11-22T03:28:43.476Z,97384.88
2022-11-22T03:32:45.161Z,97379.78
2022-11-22T03:36:46.828Z,97373.84
2022-11-22T03:40:48.347Z,97385.06
2022-11-22T03:44:49.851Z,97380.06
2022-11-22T03:48:51.137Z,97394.72
2022-11-22T03:52:52.411Z,97400.75
2022-11-22T03:56:53.681Z,97394.66
2022-11-22T04:00:56.240Z,97394.63
2022-11-22T04:04:59.504Z,97385.16
2022-11-22T04:09:00.850Z,97379.13
2022-11-22T04:13:02.264Z,97384.31
2022-11-22T04:17:03.878Z,97393.84
2022-11-22T04:21:23.662Z,97392.97
2022-11-22T04:25:29.625Z,97392.97
2022-11-22T04:29:31.245Z,97395.56
2022-11-22T04:33:33.638Z,97397.25
2022-11-22T04:37:36.202Z,97410.13
2022-11-22T04:41:39.663Z,97408.38
2022-11-22T04:45:42.568Z,97415.97
2022-11-22T04:49:44.726Z,97412.53
2022-11-22T04:53:47.459Z,97416.84
2022-11-22T04:57:48.828Z,97414.22
2022-11-22T05:01:50.215Z,97415.88
2022-11-22T05:05:55.635Z,97412.41
2022-11-22T05:09:57.181Z,97432.22
2022-11-22T05:13:58.802Z,97421.94
2022-11-22T05:18:00.079Z,97427.06
2022-11-22T05:22:02.142Z,97430.53
2022-11-22T05:26:04.114Z,97427.94
2022-11-22T05:30:05.928Z,97433.16
2022-11-22T05:34:07.209Z,97438.34
2022-11-22T05:38:08.535Z,97440.06
2022-11-22T05:42:09.951Z,97434.88
2022-11-22T05:46:12.684Z,97442.59
2022-11-22T05:50:13.956Z,97452.06
2022-11-22T05:54:15.255Z,97439.22
2022-11-22T05:58:16.588Z,97444.38
2022-11-22T06:02:18.633Z,97447.00
2022-11-22T06:06:20.173Z,97462.50
2022-11-22T06:10:21.807Z,97460.88
2022-11-22T06:14:23.057Z,97468.69
2022-11-22T06:18:24.352Z,97462.75
2022-11-22T06:22:25.591Z,97468.06
2022-11-22T06:26:27.323Z,97476.78
2022-11-22T06:30:28.924Z,97470.06
2022-11-22T06:34:30.262Z,97476.13
2022-11-22T06:38:31.548Z,97470.19
2022-11-22T06:42:33.012Z,97465.94
2022-11-22T06:46:34.890Z,97462.63
2022-11-22T06:50:36.396Z,97472.94
2022-11-22T06:54:37.994Z,97480.69
2022-11-22T06:58:39.512Z,97491.84
2022-11-22T07:02:41.181Z,97481.63
2022-11-22T07:06:44.713Z,97487.69
2022-11-22T07:10:46.226Z,97489.41
2022-11-22T07:14:49.124Z,97477.44
2022-11-22T07:18:50.978Z,97489.56
2022-11-22T07:22:55.050Z,97501.59
2022-11-22T07:26:56.472Z,97493.06
2022-11-22T07:31:01.849Z,97487.94
2022-11-22T07:35:03.307Z,97491.38
2022-11-22T07:39:04.699Z,97504.25
2022-11-22T07:43:06.217Z,97513.69
2022-11-22T07:47:08.145Z,97525.63
2022-11-22T07:51:09.469Z,97534.09
2022-11-22T07:55:14.288Z,97541.69
2022-11-22T07:59:16.019Z,97551.84
2022-11-22T08:03:22.697Z,97549.19
2022-11-22T08:07:26.896Z,97555.00
2022-11-22T08:11:28.998Z,97561.75
2022-11-22T08:15:30.273Z,97562.41
2022-11-22T08:19:32.024Z,97563.22
2022-11-22T08:23:33.691Z,97569.16
2022-11-22T08:27:35.270Z,97557.13
2022-11-22T08:31:36.820Z,97557.97
2022-11-22T08:35:38.140Z,97547.53
2022-11-22T08:39:39.453Z,97564.56
2022-11-22T08:43:40.914Z,97554.16
2022-11-22T08:47:42.209Z,97550.44
2022-11-22T08:51:45.274Z,97536.22
2022-11-22T08:55:46.748Z,97534.00
2022-11-22T08:59:48.115Z,97528.16
2022-11-22T09:03:49.721Z,97516.44
2022-11-22T09:12:12.328Z,97519.78
2022-11-22T09:16:18.860Z,97526.28
2022-11-22T09:20:20.199Z,97530.56
2022-11-22T09:24:21.622Z,97520.28
2022-11-22T09:28:23.117Z,97519.97
2022-11-22T09:32:28.100Z,97512.00
2022-11-22T09:36:32.004Z,97507.78
2022-11-22T09:40:33.714Z,97499.13
2022-11-22T09:44:45.428Z,97502.25
2022-11-22T09:48:56.236Z,97514.78
2022-11-22T09:53:01.710Z,97500.91
2022-11-22T09:57:04.987Z,97494.88
2022-11-22T10:01:18.221Z,97493.38
2022-11-22T10:05:24.294Z,97501.75
2022-11-22T10:09:25.996Z,97500.06
2022-11-22T10:13:41.102Z,97491.53
2022-11-22T10:17:56.385Z,97494.91
2022-11-22T10:21:57.766Z,97502.56
2022-11-22T10:26:00.215Z,97496.34
2022-11-22T10:30:04.908Z,97494.59
2022-11-22T10:34:31.488Z,97510.19
2022-11-22T10:38:35.808Z,97501.47
2022-11-22T10:42:40.453Z,97498.97
2022-11-22T10:46:44.571Z,97502.81
2022-11-22T10:50:45.800Z,97491.69
2022-11-22T10:54:59.203Z,97495.16
2022-11-22T10:59:19.080Z,97497.66
2022-11-22T11:03:35.886Z,97491.75
2022-11-22T11:07:38.206Z,97496.09
2022-11-22T11:11:42.009Z,97486.75
2022-11-22T11:15:52.818Z,97482.47
2022-11-22T11:19:59.038Z,97479.03
2022-11-22T11:24:00.389Z,97479.94
2022-11-22T11:28:06.988Z,97472.97
2022-11-22T11:32:08.315Z,97472.00
2022-11-22T11:36:15.804Z,97484.03
2022-11-22T11:40:26.476Z,97477.34
2022-11-22T11:44:36.630Z,97472.25
2022-11-22T11:48:38.207Z,97475.13
2022-11-22T11:52:40.843Z,97481.31
2022-11-22T11:56:45.619Z,97483.97
2022-11-22T12:00:48.414Z,97492.78
2022-11-22T12:04:49.691Z,97480.69
2022-11-22T12:08:51.039Z,97469.34
2022-11-22T12:13:11.240Z,97472.69
2022-11-22T12:17:17.225Z,97474.38
2022-11-22T12:21:24.531Z,97476.69
2022-11-22T12:25:32.473Z,97477.72
2022-11-22T12:29:35.028Z,97475.94
2022-11-22T12:33:39.906Z,97488.13
2022-11-22T12:37:53.148Z,97477.00
2022-11-22T12:42:00.593Z,97479.59
2022-11-22T12:46:09.743Z,97468.44
2022-11-22T12:50:37.475Z,97481.25
2022-11-22T12:54:43.442Z,97475.88
2022-11-22T12:58:57.004Z,97483.69
2022-11-22T13:03:04.197Z,97490.53
2022-11-22T13:07:12.157Z,97487.00
2022-11-22T13:11:14.712Z,97480.88
2022-11-22T13:15:19.159Z,97483.31
2022-11-22T13:19:22.112Z,97488.59
2022-11-22T13:23:44.651Z,97489.41
2022-11-22T13:27:48.443Z,97483.50
2022-11-22T13:32:07.042Z,97493.94
2022-11-22T13:36:27.098Z,97489.75
2022-11-22T13:40:29.998Z,97503.47
2022-11-22T13:44:31.445Z,97485.34
2022-11-22T13:48:39.663Z,97492.13
2022-11-22T13:52:51.839Z,97485.28
2022-11-22T13:56:59.635Z,97491.31
2022-11-22T14:01:01.040Z,97501.59
2022-11-22T14:05:02.635Z,97487.94
2022-11-22T14:09:33.292Z,97492.19
2022-11-22T14:13:54.503Z,97489.59
2022-11-22T14:18:03.592Z,97497.31
2022-11-22T14:22:12.151Z,97496.47
2022-11-22T14:26:20.799Z,97493.00
2022-11-22T14:30:23.331Z,97489.72
2022-11-22T14:34:29.151Z,97490.47
2022-11-22T14:38:32.783Z,97489.63
2022-11-22T14:42:37.149Z,97493.94
2022-11-22T14:46:57.611Z,97499.91
2022-11-22T14:51:02.033Z,97497.47
2022-11-22T14:55:06.043Z,97508.63
2022-11-22T14:59:33.827Z,97500.06
2022-11-22T15:09:11.958Z,97509.44
2022-11-22T15:09:15.370Z,97506.06
2022-11-22T15:12:43.772Z,97506.00
2022-11-22T16:00:48.699Z,97560.22
2022-11-22T16:06:09.567Z,97563.63
2022-11-22T16:09:23.709Z,97573.03
2022-11-22T16:13:27.710Z,97573.06
2022-11-22T16:17:38.392Z,97575.69
2022-11-22T16:21:39.683Z,97575.72
2022-11-22T16:25:42.820Z,97581.81
2022-11-22T16:29:50.310Z,97588.88
2022-11-22T16:33:52.270Z,97582.91
2022-11-22T16:37:54.312Z,97593.34
2022-11-22T16:41:55.629Z,97598.53
2022-11-22T16:45:56.994Z,97596.00
2022-11-22T16:49:58.278Z,97594.31
2022-11-22T16:54:05.170Z,97591.78
2022-11-22T16:58:12.692Z,97601.28
2022-11-22T17:02:15.470Z,97603.09
2022-11-22T17:06:18.947Z,97618.56
2022-11-22T17:10:20.427Z,97618.53
2022-11-22T17:14:21.894Z,97620.22
2022-11-22T17:18:23.511Z,97625.34
2022-11-22T17:22:25.200Z,97634.81
2022-11-22T17:26:27.089Z,97638.22
2022-11-22T17:30:28.473Z,97640.78
2022-11-22T17:34:29.964Z,97644.19
2022-11-22T17:38:31.807Z,97652.75
2022-11-22T17:42:38.150Z,97663.97
2022-11-22T17:46:43.933Z,97670.84
2022-11-22T17:50:45.303Z,97668.34
2022-11-22T17:54:46.719Z,97664.00
2022-11-22T17:58:48.623Z,97670.00
2022-11-22T18:02:50.178Z,97664.84
2022-11-22T18:06:51.585Z,97666.59
2022-11-22T18:10:53.856Z,97676.13
2022-11-22T18:14:55.235Z,97671.94
2022-11-22T18:18:57.909Z,97676.25
2022-11-22T18:23:00.011Z,97679.72
2022-11-22T18:27:01.303Z,97679.72
2022-11-22T18:31:02.887Z,97683.16
2022-11-22T18:35:04.370Z,97684.84
2022-11-22T18:39:05.682Z,97684.03
2022-11-22T18:43:06.976Z,97687.50
2022-11-22T18:47:09.171Z,97692.69
2022-11-22T18:51:10.621Z,97698.78
2022-11-22T18:55:15.742Z,97708.31
2022-11-22T18:59:17.152Z,97713.50
2022-11-22T19:03:18.455Z,97715.28
2022-11-22T19:07:23.074Z,97722.16
2022-11-22T19:11:24.695Z,97728.97
2022-11-22T19:15:26.679Z,97730.75
2022-11-22T19:19:32.039Z,97732.47
2022-11-22T19:23:33.995Z,97729.91
2022-11-22T19:27:35.836Z,97730.75
2022-11-22T19:31:37.293Z,97722.19
2022-11-22T19:35:38.647Z,97727.34
2022-11-22T19:39:40.225Z,97721.38
2022-11-22T19:43:41.915Z,97727.44
2022-11-22T19:47:43.151Z,97723.16
2022-11-22T19:51:44.467Z,97721.44
2022-11-22T19:55:45.792Z,97726.63
2022-11-22T19:59:47.067Z,97725.75
2022-11-22T20:03:52.447Z,97727.44
2022-11-22T20:07:53.880Z,97738.63
2022-11-22T20:11:55.158Z,97740.28
2022-11-22T20:15:57.724Z,97751.44
2022-11-22T20:19:58.963Z,97749.69
2022-11-22T20:24:00.952Z,97752.28
2022-11-22T20:28:02.197Z,97758.31
2022-11-22T20:32:03.791Z,97759.13
2022-11-22T20:36:06.122Z,97769.38
2022-11-22T20:40:07.875Z,97764.22
2022-11-22T20:44:11.317Z,97768.50
2022-11-22T20:48:15.345Z,97769.34
2022-11-22T20:52:16.655Z,97776.22
2022-11-22T20:56:18.803Z,97774.53
2022-11-22T21:00:20.154Z,97775.38
2022-11-22T21:04:21.704Z,97782.19
2022-11-22T21:08:26.083Z,97781.31
2022-11-22T21:12:30.676Z,97791.63
2022-11-22T21:16:33.042Z,97793.28
2022-11-22T21:20:36.979Z,97796.69
2022-11-22T21:24:38.628Z,97800.13
2022-11-22T21:28:40.599Z,97798.44
2022-11-22T21:32:41.950Z,97799.28
2022-11-22T21:36:43.234Z,97803.53
2022-11-22T21:41:05.615Z,97794.09
2022-11-22T21:45:16.083Z,97795.84
2022-11-22T21:49:17.363Z,97795.88
2022-11-22T21:53:18.948Z,97786.50
2022-11-22T21:57:20.362Z,97783.97
2022-11-22T22:01:21.903Z,97790.03
2022-11-22T22:05:23.291Z,97783.19
2022-11-22T22:09:24.574Z,97790.06
2022-11-22T22:13:26.092Z,97784.06
2022-11-22T22:17:27.743Z,97785.78
2022-11-22T22:21:29.036Z,97793.50
2022-11-22T22:25:30.857Z,97794.34
2022-11-22T22:29:32.569Z,97795.16
2022-11-22T22:33:34.792Z,97791.69
2022-11-22T22:37:36.082Z,97799.41
2022-11-22T22:41:37.762Z,97795.94
2022-11-22T22:45:39.046Z,97799.41
2022-11-22T22:49:40.315Z,97801.16
2022-11-22T22:53:42.358Z,97793.50
2022-11-22T22:57:43.624Z,97806.50
2022-11-22T23:01:44.895Z,97804.03
2022-11-22T23:05:46.507Z,97816.09
2022-11-22T23:09:47.777Z,97810.13
2022-11-22T23:13:49.087Z,97810.19
2022-11-22T23:17:50.464Z,97813.66
2022-11-22T23:21:51.969Z,97824.00
2022-11-22T23:25:53.275Z,97824.03
2022-11-22T23:29:54.627Z,97824.06
2022-11-22T23:33:56.183Z,97826.63
2022-11-22T23:37:57.532Z,97830.06
2022-11-22T23:41:58.756Z,97824.91
2022-11-22T23:46:00.172Z,97819.78
2022-11-22T23:50:01.627Z,97823.97
2022-11-22T23:54:04.586Z,97824.78
2022-11-22T23:58:06.052Z,97826.44
